Hyundai Forward — 3EJY9 — position and weather

sailwx.info

Track history (hours):
 
Tides and Currents Weather Stations Pressure Air Temp Water Temp Dewpoint Dewpoint Depression Visibility Wind Speed Wind Dir Waves Ship Positions

Hyundai Forward

Last reported at 2014-Dec-19 18:18 UTC. Time now 2014-Dec-21 03:23 UTC.
Position N 22°56' E 119°57'.

Length 295 m; draft 8.7 m.

Type: Cargo ship. MMSI: 372652000.

Date/timePositionNaut miles runAvg speedWind from/ knotsBaromVisibWave heightAir tempDewpointWater temp
2014-Dec-19 18:18N 22°56' E 119°57'7 9.9
2014-Dec-19 17:33N 22°49' E 120°01'10 9.5
2014-Dec-19 16:33N 22°41' E 120°06'9 9.1
2014-Dec-19 15:33N 22°33' E 120°11'7 7.2
2014-Dec-19 14:33N 22°34' E 120°19'0 0.1
2014-Dec-19 12:30N 22°34' E 120°19'0 0.0
2014-Dec-19 11:30N 22°34' E 120°19'0 0.0
2014-Dec-19 10:30N 22°34' E 120°19'0 0.0
2014-Dec-19 09:30N 22°34' E 120°19'0 0.0
2014-Dec-19 08:30N 22°34' E 120°19'0 0.0
2014-Dec-19 07:30N 22°34' E 120°19'0 0.0
2014-Dec-19 06:30N 22°34' E 120°19'0 0.0
2014-Dec-19 05:18N 22°34' E 120°19'0 0.2
2014-Dec-19 04:33N 22°34' E 120°19'5 5.2
2014-Dec-19 03:33N 22°32' E 120°14'1313.5
2014-Dec-19 02:34N 22°42' E 120°04'1515.3
2014-Dec-19 01:34N 22°56' E 119°58'  
Track history (hours):
 
Tides and Currents Weather Stations Pressure Air Temp Water Temp Dewpoint Dewpoint Depression Visibility Wind Speed Wind Dir Waves Ship Positions

Hyundai Forward

Last reported at 2014-Dec-19 18:18 UTC. Time now 2014-Dec-21 03:23 UTC.
Position N 22°56' E 119°57'.

Length 295 m; draft 8.7 m.

Type: Cargo ship. MMSI: 372652000.

Date/timePositionNaut miles runAvg speedWind from/ knotsBaromVisibWave heightAir tempDewpointWater temp
2014-Dec-19 18:18N 22°56' E 119°57'7 9.9
2014-Dec-19 17:33N 22°49' E 120°01'10 9.5
2014-Dec-19 16:33N 22°41' E 120°06'9 9.1
2014-Dec-19 15:33N 22°33' E 120°11'7 7.2
2014-Dec-19 14:33N 22°34' E 120°19'0 0.1
2014-Dec-19 12:30N 22°34' E 120°19'0 0.0
2014-Dec-19 11:30N 22°34' E 120°19'0 0.0
2014-Dec-19 10:30N 22°34' E 120°19'0 0.0
2014-Dec-19 09:30N 22°34' E 120°19'0 0.0
2014-Dec-19 08:30N 22°34' E 120°19'0 0.0
2014-Dec-19 07:30N 22°34' E 120°19'0 0.0
2014-Dec-19 06:30N 22°34' E 120°19'0 0.0
2014-Dec-19 05:18N 22°34' E 120°19'0 0.2
2014-Dec-19 04:33N 22°34' E 120°19'5 5.2
2014-Dec-19 03:33N 22°32' E 120°14'1313.5
2014-Dec-19 02:34N 22°42' E 120°04'1515.3
2014-Dec-19 01:34N 22°56' E 119°58'  

Dump ship's entire track history